sensor_id;sensor_type;location;lat;lon;timestamp;P1;durP1;ratioP1;P2;durP2;ratioP2
45408;SDS011;31162;51.076;3.784;2024-01-10T00:01:19;10.68;;;7.55;;
45408;SDS011;31162;51.076;3.784;2024-01-10T00:03:46;12.40;;;7.93;;
45408;SDS011;31162;51.076;3.784;2024-01-10T00:06:11;12.00;;;7.38;;
45408;SDS011;31162;51.076;3.784;2024-01-10T00:08:37;11.32;;;8.00;;
45408;SDS011;31162;51.076;3.784;2024-01-10T00:11:03;12.93;;;7.45;;
45408;SDS011;31162;51.076;3.784;2024-01-10T00:13:30;9.45;;;7.20;;
45408;SDS011;31162;51.076;3.784;2024-01-10T00:15:57;12.25;;;7.72;;
45408;SDS011;31162;51.076;3.784;2024-01-10T00:18:24;9.35;;;6.97;;
45408;SDS011;31162;51.076;3.784;2024-01-10T00:20:51;10.30;;;6.93;;
45408;SDS011;31162;51.076;3.784;2024-01-10T00:23:19;10.45;;;7.32;;
45408;SDS011;31162;51.076;3.784;2024-01-10T00:25:45;11.48;;;7.50;;
45408;SDS011;31162;51.076;3.784;2024-01-10T00:28:11;11.63;;;7.28;;
45408;SDS011;31162;51.076;3.784;2024-01-10T00:30:37;9.40;;;7.85;;
45408;SDS011;31162;51.076;3.784;2024-01-10T00:33:03;9.07;;;7.30;;
45408;SDS011;31162;51.076;3.784;2024-01-10T00:35:29;11.68;;;7.15;;
45408;SDS011;31162;51.076;3.784;2024-01-10T00:37:55;9.93;;;7.35;;
45408;SDS011;31162;51.076;3.784;2024-01-10T00:40:20;9.32;;;6.90;;
45408;SDS011;31162;51.076;3.784;2024-01-10T00:42:47;10.27;;;7.30;;
45408;SDS011;31162;51.076;3.784;2024-01-10T00:45:12;10.20;;;7.00;;
45408;SDS011;31162;51.076;3.784;2024-01-10T00:47:38;9.90;;;7.25;;
45408;SDS011;31162;51.076;3.784;2024-01-10T00:50:04;10.35;;;7.10;;
45408;SDS011;31162;51.076;3.784;2024-01-10T00:52:30;11.10;;;6.93;;
45408;SDS011;31162;51.076;3.784;2024-01-10T00:54:56;9.88;;;6.93;;
45408;SDS011;31162;51.076;3.784;2024-01-10T00:57:21;10.02;;;6.75;;
45408;SDS011;31162;51.076;3.784;2024-01-10T00:59:47;12.55;;;7.35;;
45408;SDS011;31162;51.076;3.784;2024-01-10T01:02:13;8.77;;;6.55;;
45408;SDS011;31162;51.076;3.784;2024-01-10T01:04:38;10.13;;;7.18;;
45408;SDS011;31162;51.076;3.784;2024-01-10T01:07:04;11.07;;;7.10;;
45408;SDS011;31162;51.076;3.784;2024-01-10T01:09:29;9.25;;;6.68;;
45408;SDS011;31162;51.076;3.784;2024-01-10T01:11:55;10.88;;;6.65;;
45408;SDS011;31162;51.076;3.784;2024-01-10T01:14:21;9.07;;;6.60;;
45408;SDS011;31162;51.076;3.784;2024-01-10T01:16:46;9.40;;;6.68;;
45408;SDS011;31162;51.076;3.784;2024-01-10T01:19:12;9.98;;;6.28;;
45408;SDS011;31162;51.076;3.784;2024-01-10T01:21:38;9.68;;;6.20;;
45408;SDS011;31162;51.076;3.784;2024-01-10T01:24:03;11.35;;;7.00;;
45408;SDS011;31162;51.076;3.784;2024-01-10T01:26:29;11.90;;;8.23;;
45408;SDS011;31162;51.076;3.784;2024-01-10T01:28:55;14.93;;;8.50;;
45408;SDS011;31162;51.076;3.784;2024-01-10T01:31:20;13.35;;;8.27;;
45408;SDS011;31162;51.076;3.784;2024-01-10T01:33:46;13.35;;;8.05;;
45408;SDS011;31162;51.076;3.784;2024-01-10T01:36:12;11.30;;;7.82;;
45408;SDS011;31162;51.076;3.784;2024-01-10T01:38:37;8.60;;;6.75;;
45408;SDS011;31162;51.076;3.784;2024-01-10T01:41:03;9.77;;;6.93;;
45408;SDS011;31162;51.076;3.784;2024-01-10T01:43:31;10.27;;;6.68;;
45408;SDS011;31162;51.076;3.784;2024-01-10T01:45:56;10.85;;;6.78;;
45408;SDS011;31162;51.076;3.784;2024-01-10T01:48:23;8.93;;;6.65;;
45408;SDS011;31162;51.076;3.784;2024-01-10T01:51:11;10.93;;;6.22;;
45408;SDS011;31162;51.076;3.784;2024-01-10T01:53:37;9.40;;;6.00;;
45408;SDS011;31162;51.076;3.784;2024-01-10T01:56:08;8.77;;;5.70;;
45408;SDS011;31162;51.076;3.784;2024-01-10T01:58:35;7.60;;;5.55;;
45408;SDS011;31162;51.076;3.784;2024-01-10T02:01:02;9.05;;;6.20;;
45408;SDS011;31162;51.076;3.784;2024-01-10T02:03:28;11.25;;;6.28;;
45408;SDS011;31162;51.076;3.784;2024-01-10T02:05:55;7.85;;;5.80;;
45408;SDS011;31162;51.076;3.784;2024-01-10T02:08:22;9.30;;;6.93;;
45408;SDS011;31162;51.076;3.784;2024-01-10T02:10:48;11.18;;;7.03;;
45408;SDS011;31162;51.076;3.784;2024-01-10T02:13:14;12.88;;;9.05;;
45408;SDS011;31162;51.076;3.784;2024-01-10T02:15:40;12.75;;;8.23;;
45408;SDS011;31162;51.076;3.784;2024-01-10T02:18:06;10.95;;;6.88;;
45408;SDS011;31162;51.076;3.784;2024-01-10T02:20:32;9.55;;;6.30;;
45408;SDS011;31162;51.076;3.784;2024-01-10T02:22:58;7.80;;;5.57;;
45408;SDS011;31162;51.076;3.784;2024-01-10T02:25:23;12.05;;;7.57;;
45408;SDS011;31162;51.076;3.784;2024-01-10T02:27:49;17.50;;;11.32;;
45408;SDS011;31162;51.076;3.784;2024-01-10T02:30:15;18.40;;;11.38;;
45408;SDS011;31162;51.076;3.784;2024-01-10T02:32:40;17.05;;;11.82;;
45408;SDS011;31162;51.076;3.784;2024-01-10T02:35:06;16.65;;;10.50;;
45408;SDS011;31162;51.076;3.784;2024-01-10T02:37:33;16.13;;;8.88;;
45408;SDS011;31162;51.076;3.784;2024-01-10T02:39:59;16.35;;;7.78;;
45408;SDS011;31162;51.076;3.784;2024-01-10T02:42:26;11.10;;;6.45;;
45408;SDS011;31162;51.076;3.784;2024-01-10T02:44:53;10.85;;;7.00;;
45408;SDS011;31162;51.076;3.784;2024-01-10T02:47:18;10.75;;;6.57;;
45408;SDS011;31162;51.076;3.784;2024-01-10T02:49:44;10.25;;;6.90;;
45408;SDS011;31162;51.076;3.784;2024-01-10T02:52:10;9.55;;;6.53;;
45408;SDS011;31162;51.076;3.784;2024-01-10T02:54:35;10.25;;;6.80;;
45408;SDS011;31162;51.076;3.784;2024-01-10T02:57:01;6.88;;;5.65;;
45408;SDS011;31162;51.076;3.784;2024-01-10T02:59:27;9.52;;;6.22;;
45408;SDS011;31162;51.076;3.784;2024-01-10T03:01:52;10.00;;;6.43;;
45408;SDS011;31162;51.076;3.784;2024-01-10T03:04:18;8.38;;;5.68;;
45408;SDS011;31162;51.076;3.784;2024-01-10T03:06:44;11.13;;;6.80;;
45408;SDS011;31162;51.076;3.784;2024-01-10T03:09:10;11.93;;;7.53;;
45408;SDS011;31162;51.076;3.784;2024-01-10T03:11:36;10.63;;;7.43;;
45408;SDS011;31162;51.076;3.784;2024-01-10T03:14:02;11.32;;;7.15;;
45408;SDS011;31162;51.076;3.784;2024-01-10T03:16:29;8.80;;;6.30;;
45408;SDS011;31162;51.076;3.784;2024-01-10T03:18:55;9.68;;;6.45;;
45408;SDS011;31162;51.076;3.784;2024-01-10T03:21:21;9.48;;;6.00;;
45408;SDS011;31162;51.076;3.784;2024-01-10T03:23:51;10.77;;;6.57;;
45408;SDS011;31162;51.076;3.784;2024-01-10T03:26:23;9.07;;;6.45;;
45408;SDS011;31162;51.076;3.784;2024-01-10T03:28:49;9.05;;;6.07;;
45408;SDS011;31162;51.076;3.784;2024-01-10T03:31:15;13.05;;;7.25;;
45408;SDS011;31162;51.076;3.784;2024-01-10T03:33:41;11.43;;;6.65;;
45408;SDS011;31162;51.076;3.784;2024-01-10T03:36:09;9.50;;;7.05;;
45408;SDS011;31162;51.076;3.784;2024-01-10T03:38:36;8.68;;;6.25;;
45408;SDS011;31162;51.076;3.784;2024-01-10T03:41:02;7.30;;;5.70;;
45408;SDS011;31162;51.076;3.784;2024-01-10T03:43:28;8.05;;;5.63;;
45408;SDS011;31162;51.076;3.784;2024-01-10T03:45:53;8.23;;;5.72;;
45408;SDS011;31162;51.076;3.784;2024-01-10T03:48:19;8.93;;;5.95;;
45408;SDS011;31162;51.076;3.784;2024-01-10T03:50:45;7.82;;;5.05;;
45408;SDS011;31162;51.076;3.784;2024-01-10T03:53:11;8.73;;;5.82;;
45408;SDS011;31162;51.076;3.784;2024-01-10T03:55:37;7.30;;;5.78;;
45408;SDS011;31162;51.076;3.784;2024-01-10T03:58:04;6.88;;;5.75;;
45408;SDS011;31162;51.076;3.784;2024-01-10T04:00:29;9.50;;;5.68;;
45408;SDS011;31162;51.076;3.784;2024-01-10T04:02:55;8.27;;;5.30;;
45408;SDS011;31162;51.076;3.784;2024-01-10T04:05:21;8.50;;;5.78;;
45408;SDS011;31162;51.076;3.784;2024-01-10T04:07:47;10.95;;;5.85;;
45408;SDS011;31162;51.076;3.784;2024-01-10T04:10:13;10.77;;;5.78;;
45408;SDS011;31162;51.076;3.784;2024-01-10T04:12:48;6.22;;;4.95;;
45408;SDS011;31162;51.076;3.784;2024-01-10T04:15:14;7.82;;;5.32;;
45408;SDS011;31162;51.076;3.784;2024-01-10T04:17:40;7.43;;;5.32;;
45408;SDS011;31162;51.076;3.784;2024-01-10T04:20:08;9.80;;;5.20;;
45408;SDS011;31162;51.076;3.784;2024-01-10T04:22:34;7.10;;;5.47;;
45408;SDS011;31162;51.076;3.784;2024-01-10T04:25:00;8.93;;;5.35;;
45408;SDS011;31162;51.076;3.784;2024-01-10T04:27:27;7.68;;;5.40;;
45408;SDS011;31162;51.076;3.784;2024-01-10T04:29:53;7.32;;;5.28;;
45408;SDS011;31162;51.076;3.784;2024-01-10T04:32:19;9.27;;;5.45;;
45408;SDS011;31162;51.076;3.784;2024-01-10T04:34:45;8.50;;;5.68;;
45408;SDS011;31162;51.076;3.784;2024-01-10T04:37:11;8.45;;;5.97;;
45408;SDS011;31162;51.076;3.784;2024-01-10T04:39:36;8.00;;;5.57;;
45408;SDS011;31162;51.076;3.784;2024-01-10T04:44:33;8.35;;;5.57;;
45408;SDS011;31162;51.076;3.784;2024-01-10T04:46:59;8.70;;;5.78;;
45408;SDS011;31162;51.076;3.784;2024-01-10T04:49:24;16.85;;;11.88;;
45408;SDS011;31162;51.076;3.784;2024-01-10T04:51:50;6.72;;;5.25;;
45408;SDS011;31162;51.076;3.784;2024-01-10T04:54:16;7.53;;;4.97;;
45408;SDS011;31162;51.076;3.784;2024-01-10T04:56:42;9.13;;;6.55;;
45408;SDS011;31162;51.076;3.784;2024-01-10T04:59:07;8.38;;;6.07;;
45408;SDS011;31162;51.076;3.784;2024-01-10T05:01:33;6.05;;;4.75;;
45408;SDS011;31162;51.076;3.784;2024-01-10T05:03:59;7.43;;;5.28;;
45408;SDS011;31162;51.076;3.784;2024-01-10T05:06:25;9.90;;;5.45;;
45408;SDS011;31162;51.076;3.784;2024-01-10T05:08:50;7.53;;;5.15;;
45408;SDS011;31162;51.076;3.784;2024-01-10T05:11:16;8.27;;;4.97;;
45408;SDS011;31162;51.076;3.784;2024-01-10T05:13:42;7.03;;;4.93;;
45408;SDS011;31162;51.076;3.784;2024-01-10T05:16:09;8.23;;;5.63;;
45408;SDS011;31162;51.076;3.784;2024-01-10T05:18:35;6.75;;;5.00;;
45408;SDS011;31162;51.076;3.784;2024-01-10T05:21:00;5.80;;;4.53;;
45408;SDS011;31162;51.076;3.784;2024-01-10T05:23:27;6.95;;;5.25;;
45408;SDS011;31162;51.076;3.784;2024-01-10T05:25:53;7.93;;;5.15;;
45408;SDS011;31162;51.076;3.784;2024-01-10T05:28:19;11.32;;;8.30;;
45408;SDS011;31162;51.076;3.784;2024-01-10T05:30:45;10.32;;;7.22;;
45408;SDS011;31162;51.076;3.784;2024-01-10T05:33:11;9.55;;;5.05;;
45408;SDS011;31162;51.076;3.784;2024-01-10T05:35:37;8.15;;;5.60;;
45408;SDS011;31162;51.076;3.784;2024-01-10T05:38:03;7.55;;;5.60;;
45408;SDS011;31162;51.076;3.784;2024-01-10T05:40:29;11.45;;;7.63;;
45408;SDS011;31162;51.076;3.784;2024-01-10T05:42:55;9.75;;;6.85;;
45408;SDS011;31162;51.076;3.784;2024-01-10T05:45:21;14.35;;;7.93;;
45408;SDS011;31162;51.076;3.784;2024-01-10T05:47:47;9.45;;;6.05;;
45408;SDS011;31162;51.076;3.784;2024-01-10T05:50:15;7.32;;;5.38;;
45408;SDS011;31162;51.076;3.784;2024-01-10T05:52:42;8.75;;;6.00;;
45408;SDS011;31162;51.076;3.784;2024-01-10T05:55:08;8.35;;;6.43;;
45408;SDS011;31162;51.076;3.784;2024-01-10T05:57:36;7.10;;;5.80;;
45408;SDS011;31162;51.076;3.784;2024-01-10T06:00:02;7.80;;;6.13;;
45408;SDS011;31162;51.076;3.784;2024-01-10T06:02:29;11.18;;;6.53;;
45408;SDS011;31162;51.076;3.784;2024-01-10T06:04:55;12.13;;;6.18;;
45408;SDS011;31162;51.076;3.784;2024-01-10T06:07:21;9.88;;;6.05;;
45408;SDS011;31162;51.076;3.784;2024-01-10T06:09:46;8.63;;;6.03;;
45408;SDS011;31162;51.076;3.784;2024-01-10T06:12:12;9.38;;;6.60;;
45408;SDS011;31162;51.076;3.784;2024-01-10T06:14:38;9.30;;;6.13;;
45408;SDS011;31162;51.076;3.784;2024-01-10T06:17:04;9.63;;;6.85;;
45408;SDS011;31162;51.076;3.784;2024-01-10T06:19:31;9.27;;;6.13;;
45408;SDS011;31162;51.076;3.784;2024-01-10T06:21:57;9.77;;;6.53;;
45408;SDS011;31162;51.076;3.784;2024-01-10T06:24:23;9.77;;;6.38;;
45408;SDS011;31162;51.076;3.784;2024-01-10T06:26:49;9.93;;;5.75;;
45408;SDS011;31162;51.076;3.784;2024-01-10T06:29:14;8.20;;;5.95;;
45408;SDS011;31162;51.076;3.784;2024-01-10T06:31:41;9.55;;;5.80;;
45408;SDS011;31162;51.076;3.784;2024-01-10T06:34:06;9.05;;;6.22;;
45408;SDS011;31162;51.076;3.784;2024-01-10T06:36:33;12.45;;;6.90;;
45408;SDS011;31162;51.076;3.784;2024-01-10T06:38:58;11.63;;;5.88;;
45408;SDS011;31162;51.076;3.784;2024-01-10T06:41:24;8.90;;;6.07;;
45408;SDS011;31162;51.076;3.784;2024-01-10T06:43:52;12.43;;;6.32;;
45408;SDS011;31162;51.076;3.784;2024-01-10T06:46:19;8.73;;;5.88;;
45408;SDS011;31162;51.076;3.784;2024-01-10T06:48:45;8.70;;;6.05;;
45408;SDS011;31162;51.076;3.784;2024-01-10T06:51:14;13.73;;;6.40;;
45408;SDS011;31162;51.076;3.784;2024-01-10T06:53:41;8.65;;;6.32;;
45408;SDS011;31162;51.076;3.784;2024-01-10T06:56:07;10.38;;;7.25;;
45408;SDS011;31162;51.076;3.784;2024-01-10T06:58:34;8.20;;;5.68;;
45408;SDS011;31162;51.076;3.784;2024-01-10T07:01:00;9.95;;;5.95;;
45408;SDS011;31162;51.076;3.784;2024-01-10T07:03:26;10.48;;;5.97;;
45408;SDS011;31162;51.076;3.784;2024-01-10T07:05:52;8.02;;;5.88;;
45408;SDS011;31162;51.076;3.784;2024-01-10T07:08:17;116.60;;;15.88;;
45408;SDS011;31162;51.076;3.784;2024-01-10T07:10:43;8.85;;;5.93;;
45408;SDS011;31162;51.076;3.784;2024-01-10T07:13:09;21.10;;;6.80;;
45408;SDS011;31162;51.076;3.784;2024-01-10T07:15:35;10.32;;;5.70;;
45408;SDS011;31162;51.076;3.784;2024-01-10T07:18:02;9.55;;;5.82;;
45408;SDS011;31162;51.076;3.784;2024-01-10T07:20:28;7.25;;;5.75;;
45408;SDS011;31162;51.076;3.784;2024-01-10T07:22:53;14.25;;;6.65;;
45408;SDS011;31162;51.076;3.784;2024-01-10T07:25:19;51.80;;;10.85;;
45408;SDS011;31162;51.076;3.784;2024-01-10T07:27:47;70.90;;;10.95;;
45408;SDS011;31162;51.076;3.784;2024-01-10T07:30:13;82.80;;;12.90;;
45408;SDS011;31162;51.076;3.784;2024-01-10T07:32:42;24.95;;;10.30;;
45408;SDS011;31162;51.076;3.784;2024-01-10T07:35:09;14.23;;;7.20;;
45408;SDS011;31162;51.076;3.784;2024-01-10T07:37:38;20.25;;;6.78;;
45408;SDS011;31162;51.076;3.784;2024-01-10T07:40:05;27.58;;;7.50;;
45408;SDS011;31162;51.076;3.784;2024-01-10T07:42:35;8.15;;;6.20;;
45408;SDS011;31162;51.076;3.784;2024-01-10T07:45:01;8.90;;;6.35;;
45408;SDS011;31162;51.076;3.784;2024-01-10T07:47:30;8.40;;;5.57;;
45408;SDS011;31162;51.076;3.784;2024-01-10T07:49:56;10.13;;;6.38;;
45408;SDS011;31162;51.076;3.784;2024-01-10T07:52:22;9.23;;;6.32;;
45408;SDS011;31162;51.076;3.784;2024-01-10T07:54:48;9.98;;;5.97;;
45408;SDS011;31162;51.076;3.784;2024-01-10T07:57:14;8.75;;;6.43;;
45408;SDS011;31162;51.076;3.784;2024-01-10T07:59:39;9.70;;;5.78;;
45408;SDS011;31162;51.076;3.784;2024-01-10T08:02:05;9.73;;;6.28;;
45408;SDS011;31162;51.076;3.784;2024-01-10T08:04:30;9.18;;;5.85;;
45408;SDS011;31162;51.076;3.784;2024-01-10T08:06:56;9.98;;;5.68;;
45408;SDS011;31162;51.076;3.784;2024-01-10T08:09:22;9.75;;;5.85;;
45408;SDS011;31162;51.076;3.784;2024-01-10T08:11:50;8.07;;;5.65;;
45408;SDS011;31162;51.076;3.784;2024-01-10T08:14:16;10.07;;;6.15;;
45408;SDS011;31162;51.076;3.784;2024-01-10T08:16:42;7.60;;;5.65;;
45408;SDS011;31162;51.076;3.784;2024-01-10T08:19:08;8.88;;;6.78;;
45408;SDS011;31162;51.076;3.784;2024-01-10T08:21:33;8.23;;;5.60;;
45408;SDS011;31162;51.076;3.784;2024-01-10T08:24:01;10.60;;;6.97;;
45408;SDS011;31162;51.076;3.784;2024-01-10T08:26:27;8.85;;;6.43;;
45408;SDS011;31162;51.076;3.784;2024-01-10T08:28:53;12.93;;;6.95;;
45408;SDS011;31162;51.076;3.784;2024-01-10T08:31:19;10.73;;;7.47;;
45408;SDS011;31162;51.076;3.784;2024-01-10T08:33:44;10.43;;;7.43;;
45408;SDS011;31162;51.076;3.784;2024-01-10T08:36:12;12.88;;;7.82;;
45408;SDS011;31162;51.076;3.784;2024-01-10T08:38:39;11.82;;;6.90;;
45408;SDS011;31162;51.076;3.784;2024-01-10T08:41:05;11.30;;;6.90;;
45408;SDS011;31162;51.076;3.784;2024-01-10T08:43:32;10.13;;;6.75;;
45408;SDS011;31162;51.076;3.784;2024-01-10T08:45:58;8.52;;;6.38;;
45408;SDS011;31162;51.076;3.784;2024-01-10T08:48:24;12.38;;;7.07;;
45408;SDS011;31162;51.076;3.784;2024-01-10T08:50:50;16.45;;;7.88;;
45408;SDS011;31162;51.076;3.784;2024-01-10T08:53:16;15.70;;;7.70;;
45408;SDS011;31162;51.076;3.784;2024-01-10T08:55:42;10.40;;;6.65;;
45408;SDS011;31162;51.076;3.784;2024-01-10T08:58:07;12.43;;;7.03;;
45408;SDS011;31162;51.076;3.784;2024-01-10T09:00:33;9.18;;;6.05;;
45408;SDS011;31162;51.076;3.784;2024-01-10T09:02:59;10.65;;;6.47;;
45408;SDS011;31162;51.076;3.784;2024-01-10T09:05:26;9.43;;;7.00;;
45408;SDS011;31162;51.076;3.784;2024-01-10T09:07:51;8.63;;;6.43;;
45408;SDS011;31162;51.076;3.784;2024-01-10T09:10:19;9.07;;;6.18;;
45408;SDS011;31162;51.076;3.784;2024-01-10T09:12:46;13.25;;;7.07;;
45408;SDS011;31162;51.076;3.784;2024-01-10T09:15:12;10.88;;;7.10;;
45408;SDS011;31162;51.076;3.784;2024-01-10T09:17:39;10.77;;;7.50;;
45408;SDS011;31162;51.076;3.784;2024-01-10T09:20:08;9.68;;;6.70;;
45408;SDS011;31162;51.076;3.784;2024-01-10T09:22:35;16.35;;;7.40;;
45408;SDS011;31162;51.076;3.784;2024-01-10T09:25:01;9.57;;;6.68;;
45408;SDS011;31162;51.076;3.784;2024-01-10T09:27:28;10.68;;;7.05;;
45408;SDS011;31162;51.076;3.784;2024-01-10T09:29:58;12.57;;;6.30;;
45408;SDS011;31162;51.076;3.784;2024-01-10T09:32:26;10.50;;;6.80;;
45408;SDS011;31162;51.076;3.784;2024-01-10T09:34:53;11.48;;;6.93;;
45408;SDS011;31162;51.076;3.784;2024-01-10T09:37:19;13.95;;;7.70;;
45408;SDS011;31162;51.076;3.784;2024-01-10T09:39:44;11.57;;;7.60;;
45408;SDS011;31162;51.076;3.784;2024-01-10T09:42:10;15.05;;;8.15;;
45408;SDS011;31162;51.076;3.784;2024-01-10T09:44:36;12.10;;;8.25;;
45408;SDS011;31162;51.076;3.784;2024-01-10T09:47:02;13.23;;;7.50;;
45408;SDS011;31162;51.076;3.784;2024-01-10T09:49:27;14.85;;;9.68;;
45408;SDS011;31162;51.076;3.784;2024-01-10T09:51:57;10.40;;;6.75;;
45408;SDS011;31162;51.076;3.784;2024-01-10T09:54:27;10.55;;;7.30;;
45408;SDS011;31162;51.076;3.784;2024-01-10T09:56:56;10.77;;;7.38;;
45408;SDS011;31162;51.076;3.784;2024-01-10T09:59:22;10.75;;;7.00;;
45408;SDS011;31162;51.076;3.784;2024-01-10T10:01:48;89.55;;;18.35;;
45408;SDS011;31162;51.076;3.784;2024-01-10T10:04:16;19.17;;;8.73;;
45408;SDS011;31162;51.076;3.784;2024-01-10T10:06:44;11.20;;;7.07;;
45408;SDS011;31162;51.076;3.784;2024-01-10T10:09:10;14.75;;;7.18;;
45408;SDS011;31162;51.076;3.784;2024-01-10T10:11:37;21.58;;;8.38;;
45408;SDS011;31162;51.076;3.784;2024-01-10T10:14:15;14.20;;;7.90;;
45408;SDS011;31162;51.076;3.784;2024-01-10T10:16:43;12.43;;;7.82;;
45408;SDS011;31162;51.076;3.784;2024-01-10T10:19:09;10.05;;;7.32;;
45408;SDS011;31162;51.076;3.784;2024-01-10T10:21:37;11.35;;;7.85;;
45408;SDS011;31162;51.076;3.784;2024-01-10T10:24:03;9.60;;;6.80;;
45408;SDS011;31162;51.076;3.784;2024-01-10T10:26:29;9.80;;;7.28;;
45408;SDS011;31162;51.076;3.784;2024-01-10T10:28:58;10.45;;;6.85;;
45408;SDS011;31162;51.076;3.784;2024-01-10T10:31:24;11.52;;;7.57;;
45408;SDS011;31162;51.076;3.784;2024-01-10T10:33:51;10.52;;;7.30;;
45408;SDS011;31162;51.076;3.784;2024-01-10T10:36:17;8.93;;;7.10;;
45408;SDS011;31162;51.076;3.784;2024-01-10T10:38:43;10.63;;;7.68;;
45408;SDS011;31162;51.076;3.784;2024-01-10T10:41:09;10.50;;;7.78;;
45408;SDS011;31162;51.076;3.784;2024-01-10T10:43:38;11.35;;;8.07;;
45408;SDS011;31162;51.076;3.784;2024-01-10T10:46:04;10.73;;;7.40;;
45408;SDS011;31162;51.076;3.784;2024-01-10T10:48:34;12.93;;;8.40;;
45408;SDS011;31162;51.076;3.784;2024-01-10T10:51:05;13.07;;;7.57;;
45408;SDS011;31162;51.076;3.784;2024-01-10T10:53:36;11.30;;;8.13;;
45408;SDS011;31162;51.076;3.784;2024-01-10T10:56:04;13.60;;;7.97;;
45408;SDS011;31162;51.076;3.784;2024-01-10T10:58:38;16.10;;;8.18;;
45408;SDS011;31162;51.076;3.784;2024-01-10T11:01:05;13.88;;;8.55;;
45408;SDS011;31162;51.076;3.784;2024-01-10T11:03:34;14.30;;;7.65;;
45408;SDS011;31162;51.076;3.784;2024-01-10T11:06:01;11.20;;;8.20;;
45408;SDS011;31162;51.076;3.784;2024-01-10T11:08:28;9.82;;;7.57;;
45408;SDS011;31162;51.076;3.784;2024-01-10T11:17:49;10.32;;;7.88;;
45408;SDS011;31162;51.076;3.784;2024-01-10T11:20:21;20.83;;;8.05;;
45408;SDS011;31162;51.076;3.784;2024-01-10T11:23:02;9.98;;;7.93;;
45408;SDS011;31162;51.076;3.784;2024-01-10T11:25:35;11.25;;;8.27;;
45408;SDS011;31162;51.076;3.784;2024-01-10T11:28:04;11.07;;;8.57;;
45408;SDS011;31162;51.076;3.784;2024-01-10T11:30:37;11.13;;;8.48;;
45408;SDS011;31162;51.076;3.784;2024-01-10T11:41:14;10.02;;;8.65;;
45408;SDS011;31162;51.076;3.784;2024-01-10T11:43:45;11.52;;;8.52;;
45408;SDS011;31162;51.076;3.784;2024-01-10T11:46:12;10.52;;;8.95;;
45408;SDS011;31162;51.076;3.784;2024-01-10T11:48:38;12.90;;;8.80;;
45408;SDS011;31162;51.076;3.784;2024-01-10T11:51:04;14.73;;;11.02;;
45408;SDS011;31162;51.076;3.784;2024-01-10T11:53:39;11.32;;;9.43;;
45408;SDS011;31162;51.076;3.784;2024-01-10T11:56:10;17.08;;;11.27;;
45408;SDS011;31162;51.076;3.784;2024-01-10T11:58:53;11.27;;;8.77;;
45408;SDS011;31162;51.076;3.784;2024-01-10T12:01:36;17.30;;;9.68;;
45408;SDS011;31162;51.076;3.784;2024-01-10T12:04:03;15.20;;;9.65;;
45408;SDS011;31162;51.076;3.784;2024-01-10T12:06:30;13.88;;;10.40;;
45408;SDS011;31162;51.076;3.784;2024-01-10T12:08:56;14.30;;;9.27;;
45408;SDS011;31162;51.076;3.784;2024-01-10T12:11:22;12.57;;;8.95;;
45408;SDS011;31162;51.076;3.784;2024-01-10T12:13:48;11.63;;;8.82;;
45408;SDS011;31162;51.076;3.784;2024-01-10T12:16:14;14.27;;;9.30;;
45408;SDS011;31162;51.076;3.784;2024-01-10T12:18:40;13.18;;;9.88;;
45408;SDS011;31162;51.076;3.784;2024-01-10T12:21:06;12.55;;;9.15;;
45408;SDS011;31162;51.076;3.784;2024-01-10T12:23:34;17.17;;;11.65;;
45408;SDS011;31162;51.076;3.784;2024-01-10T12:26:03;15.05;;;9.55;;
45408;SDS011;31162;51.076;3.784;2024-01-10T12:28:33;12.70;;;9.07;;
45408;SDS011;31162;51.076;3.784;2024-01-10T12:30:59;14.02;;;9.25;;
45408;SDS011;31162;51.076;3.784;2024-01-10T12:33:25;17.85;;;9.57;;
45408;SDS011;31162;51.076;3.784;2024-01-10T12:36:07;16.35;;;10.80;;
45408;SDS011;31162;51.076;3.784;2024-01-10T12:38:34;14.50;;;9.55;;
45408;SDS011;31162;51.076;3.784;2024-01-10T12:41:01;13.10;;;8.55;;
45408;SDS011;31162;51.076;3.784;2024-01-10T12:43:27;12.30;;;8.63;;
45408;SDS011;31162;51.076;3.784;2024-01-10T12:46:02;13.30;;;9.38;;
45408;SDS011;31162;51.076;3.784;2024-01-10T12:48:29;10.68;;;8.90;;
45408;SDS011;31162;51.076;3.784;2024-01-10T12:50:55;11.95;;;8.40;;
45408;SDS011;31162;51.076;3.784;2024-01-10T12:53:22;14.77;;;9.43;;
45408;SDS011;31162;51.076;3.784;2024-01-10T12:55:47;12.52;;;8.43;;
45408;SDS011;31162;51.076;3.784;2024-01-10T12:58:13;14.10;;;8.50;;
45408;SDS011;31162;51.076;3.784;2024-01-10T13:00:39;15.35;;;8.98;;
45408;SDS011;31162;51.076;3.784;2024-01-10T13:03:05;12.48;;;8.75;;
45408;SDS011;31162;51.076;3.784;2024-01-10T13:05:31;12.30;;;8.07;;
45408;SDS011;31162;51.076;3.784;2024-01-10T13:07:57;16.88;;;10.13;;
45408;SDS011;31162;51.076;3.784;2024-01-10T13:10:22;13.07;;;9.88;;
45408;SDS011;31162;51.076;3.784;2024-01-10T13:12:48;16.85;;;10.32;;
45408;SDS011;31162;51.076;3.784;2024-01-10T13:15:14;14.18;;;10.27;;
45408;SDS011;31162;51.076;3.784;2024-01-10T13:17:39;13.50;;;9.18;;
45408;SDS011;31162;51.076;3.784;2024-01-10T13:20:05;16.63;;;9.23;;
45408;SDS011;31162;51.076;3.784;2024-01-10T13:22:31;13.73;;;9.55;;
45408;SDS011;31162;51.076;3.784;2024-01-10T13:24:57;13.48;;;8.85;;
45408;SDS011;31162;51.076;3.784;2024-01-10T13:27:22;12.93;;;8.80;;
45408;SDS011;31162;51.076;3.784;2024-01-10T13:29:48;12.48;;;8.32;;
45408;SDS011;31162;51.076;3.784;2024-01-10T13:32:14;14.85;;;9.27;;
45408;SDS011;31162;51.076;3.784;2024-01-10T13:34:40;12.00;;;9.35;;
45408;SDS011;31162;51.076;3.784;2024-01-10T13:37:06;14.88;;;9.73;;
45408;SDS011;31162;51.076;3.784;2024-01-10T13:39:35;13.48;;;9.35;;
45408;SDS011;31162;51.076;3.784;2024-01-10T13:42:01;14.52;;;9.38;;
45408;SDS011;31162;51.076;3.784;2024-01-10T13:44:26;15.15;;;9.73;;
45408;SDS011;31162;51.076;3.784;2024-01-10T13:46:52;16.02;;;9.77;;
45408;SDS011;31162;51.076;3.784;2024-01-10T13:49:18;13.40;;;8.85;;
45408;SDS011;31162;51.076;3.784;2024-01-10T13:51:44;13.13;;;8.45;;
45408;SDS011;31162;51.076;3.784;2024-01-10T13:54:10;18.40;;;12.75;;
45408;SDS011;31162;51.076;3.784;2024-01-10T13:56:35;14.15;;;9.70;;
45408;SDS011;31162;51.076;3.784;2024-01-10T13:59:04;14.13;;;10.07;;
45408;SDS011;31162;51.076;3.784;2024-01-10T14:01:30;14.18;;;9.18;;
45408;SDS011;31162;51.076;3.784;2024-01-10T14:03:55;12.40;;;9.13;;
45408;SDS011;31162;51.076;3.784;2024-01-10T14:06:21;13.57;;;8.73;;
45408;SDS011;31162;51.076;3.784;2024-01-10T14:08:47;16.33;;;9.68;;
45408;SDS011;31162;51.076;3.784;2024-01-10T14:11:14;13.73;;;9.32;;
45408;SDS011;31162;51.076;3.784;2024-01-10T14:13:40;13.80;;;9.07;;
45408;SDS011;31162;51.076;3.784;2024-01-10T14:16:05;15.38;;;8.57;;
45408;SDS011;31162;51.076;3.784;2024-01-10T14:18:31;13.45;;;8.63;;
45408;SDS011;31162;51.076;3.784;2024-01-10T14:20:57;12.25;;;8.88;;
45408;SDS011;31162;51.076;3.784;2024-01-10T14:23:23;13.07;;;9.20;;
45408;SDS011;31162;51.076;3.784;2024-01-10T14:25:49;12.18;;;9.15;;
45408;SDS011;31162;51.076;3.784;2024-01-10T14:28:17;14.93;;;8.93;;
45408;SDS011;31162;51.076;3.784;2024-01-10T14:30:43;12.32;;;8.80;;
45408;SDS011;31162;51.076;3.784;2024-01-10T14:33:09;17.42;;;9.30;;
45408;SDS011;31162;51.076;3.784;2024-01-10T14:35:34;13.25;;;9.13;;
45408;SDS011;31162;51.076;3.784;2024-01-10T14:38:00;13.65;;;9.07;;
45408;SDS011;31162;51.076;3.784;2024-01-10T14:40:26;13.30;;;9.25;;
45408;SDS011;31162;51.076;3.784;2024-01-10T14:42:51;16.85;;;9.85;;
45408;SDS011;31162;51.076;3.784;2024-01-10T14:45:17;14.10;;;9.43;;
45408;SDS011;31162;51.076;3.784;2024-01-10T14:47:42;13.13;;;8.27;;
45408;SDS011;31162;51.076;3.784;2024-01-10T14:50:08;17.85;;;9.20;;
45408;SDS011;31162;51.076;3.784;2024-01-10T14:52:34;13.80;;;9.15;;